sensor_id;sensor_type;location;lat;lon;timestamp;P1;durP1;ratioP1;P2;durP2;ratioP2
75912;SDS011;64592;52.168;21.040;2023-09-07T00:01:05;15.25;;;8.43;;
75912;SDS011;64592;52.168;21.040;2023-09-07T00:06:08;17.60;;;7.95;;
75912;SDS011;64592;52.168;21.040;2023-09-07T00:11:11;15.70;;;8.18;;
75912;SDS011;64592;52.168;21.040;2023-09-07T00:16:13;12.68;;;7.18;;
75912;SDS011;64592;52.168;21.040;2023-09-07T00:21:16;13.90;;;7.60;;
75912;SDS011;64592;52.168;21.040;2023-09-07T00:26:19;10.98;;;6.80;;
75912;SDS011;64592;52.168;21.040;2023-09-07T00:31:21;12.02;;;7.32;;
75912;SDS011;64592;52.168;21.040;2023-09-07T00:36:22;11.98;;;7.53;;
75912;SDS011;64592;52.168;21.040;2023-09-07T00:41:25;14.93;;;7.75;;
75912;SDS011;64592;52.168;21.040;2023-09-07T00:46:27;14.27;;;7.47;;
75912;SDS011;64592;52.168;21.040;2023-09-07T00:51:29;11.98;;;6.80;;
75912;SDS011;64592;52.168;21.040;2023-09-07T00:56:32;13.23;;;7.00;;
75912;SDS011;64592;52.168;21.040;2023-09-07T01:01:34;14.98;;;6.93;;
75912;SDS011;64592;52.168;21.040;2023-09-07T01:06:37;15.25;;;8.30;;
75912;SDS011;64592;52.168;21.040;2023-09-07T01:11:42;15.38;;;8.35;;
75912;SDS011;64592;52.168;21.040;2023-09-07T01:16:44;12.18;;;6.82;;
75912;SDS011;64592;52.168;21.040;2023-09-07T01:21:47;13.43;;;7.57;;
75912;SDS011;64592;52.168;21.040;2023-09-07T01:26:49;14.45;;;7.05;;
75912;SDS011;64592;52.168;21.040;2023-09-07T01:31:52;15.23;;;7.30;;
75912;SDS011;64592;52.168;21.040;2023-09-07T01:36:55;18.35;;;8.57;;
75912;SDS011;64592;52.168;21.040;2023-09-07T01:41:57;18.92;;;8.38;;
75912;SDS011;64592;52.168;21.040;2023-09-07T01:46:58;19.73;;;8.27;;
75912;SDS011;64592;52.168;21.040;2023-09-07T01:52:02;21.55;;;8.63;;
75912;SDS011;64592;52.168;21.040;2023-09-07T01:57:04;16.90;;;8.10;;
75912;SDS011;64592;52.168;21.040;2023-09-07T02:02:05;11.13;;;7.43;;
75912;SDS011;64592;52.168;21.040;2023-09-07T02:07:09;19.00;;;8.02;;
75912;SDS011;64592;52.168;21.040;2023-09-07T02:12:10;15.27;;;7.95;;
75912;SDS011;64592;52.168;21.040;2023-09-07T02:17:12;13.70;;;7.80;;
75912;SDS011;64592;52.168;21.040;2023-09-07T02:22:19;14.38;;;7.75;;
75912;SDS011;64592;52.168;21.040;2023-09-07T02:27:21;18.73;;;8.30;;
75912;SDS011;64592;52.168;21.040;2023-09-07T02:32:22;17.55;;;7.45;;
75912;SDS011;64592;52.168;21.040;2023-09-07T02:37:25;16.88;;;7.90;;
75912;SDS011;64592;52.168;21.040;2023-09-07T02:42:27;13.88;;;6.97;;
75912;SDS011;64592;52.168;21.040;2023-09-07T02:47:29;14.68;;;7.38;;
75912;SDS011;64592;52.168;21.040;2023-09-07T02:52:32;16.42;;;8.25;;
75912;SDS011;64592;52.168;21.040;2023-09-07T02:57:34;13.02;;;7.20;;
75912;SDS011;64592;52.168;21.040;2023-09-07T03:02:37;13.82;;;7.72;;
75912;SDS011;64592;52.168;21.040;2023-09-07T03:07:40;13.10;;;8.20;;
75912;SDS011;64592;52.168;21.040;2023-09-07T03:12:41;15.23;;;8.52;;
75912;SDS011;64592;52.168;21.040;2023-09-07T03:17:43;13.48;;;7.90;;
75912;SDS011;64592;52.168;21.040;2023-09-07T03:22:46;14.70;;;8.77;;
75912;SDS011;64592;52.168;21.040;2023-09-07T03:27:48;11.32;;;7.75;;
75912;SDS011;64592;52.168;21.040;2023-09-07T03:32:50;12.43;;;7.80;;
75912;SDS011;64592;52.168;21.040;2023-09-07T03:37:53;14.10;;;7.70;;
75912;SDS011;64592;52.168;21.040;2023-09-07T03:42:54;19.90;;;8.18;;
75912;SDS011;64592;52.168;21.040;2023-09-07T03:47:56;13.77;;;8.68;;
75912;SDS011;64592;52.168;21.040;2023-09-07T03:52:59;14.10;;;7.70;;
75912;SDS011;64592;52.168;21.040;2023-09-07T03:58:01;12.73;;;7.80;;
75912;SDS011;64592;52.168;21.040;2023-09-07T04:03:03;13.23;;;7.70;;
75912;SDS011;64592;52.168;21.040;2023-09-07T04:08:07;17.10;;;7.85;;
75912;SDS011;64592;52.168;21.040;2023-09-07T04:13:09;13.18;;;8.02;;
75912;SDS011;64592;52.168;21.040;2023-09-07T04:18:11;14.32;;;6.72;;
75912;SDS011;64592;52.168;21.040;2023-09-07T04:23:14;14.82;;;8.65;;
75912;SDS011;64592;52.168;21.040;2023-09-07T04:28:15;13.60;;;7.40;;
75912;SDS011;64592;52.168;21.040;2023-09-07T04:33:17;16.50;;;8.73;;
75912;SDS011;64592;52.168;21.040;2023-09-07T04:38:20;15.90;;;8.10;;
75912;SDS011;64592;52.168;21.040;2023-09-07T04:43:22;13.02;;;6.63;;
75912;SDS011;64592;52.168;21.040;2023-09-07T04:48:23;13.50;;;7.88;;
75912;SDS011;64592;52.168;21.040;2023-09-07T04:53:27;15.13;;;7.55;;
75912;SDS011;64592;52.168;21.040;2023-09-07T04:58:29;12.52;;;7.57;;
75912;SDS011;64592;52.168;21.040;2023-09-07T05:03:31;10.05;;;6.80;;
75912;SDS011;64592;52.168;21.040;2023-09-07T05:08:34;12.50;;;7.38;;
75912;SDS011;64592;52.168;21.040;2023-09-07T05:13:36;11.27;;;7.10;;
75912;SDS011;64592;52.168;21.040;2023-09-07T05:18:38;10.73;;;7.57;;
75912;SDS011;64592;52.168;21.040;2023-09-07T05:23:44;12.15;;;7.72;;
75912;SDS011;64592;52.168;21.040;2023-09-07T05:28:45;14.13;;;8.93;;
75912;SDS011;64592;52.168;21.040;2023-09-07T05:33:47;15.52;;;8.10;;
75912;SDS011;64592;52.168;21.040;2023-09-07T05:38:50;18.70;;;9.45;;
75912;SDS011;64592;52.168;21.040;2023-09-07T05:43:52;20.73;;;11.32;;
75912;SDS011;64592;52.168;21.040;2023-09-07T05:48:54;22.02;;;10.55;;
75912;SDS011;64592;52.168;21.040;2023-09-07T05:53:57;19.27;;;11.32;;
75912;SDS011;64592;52.168;21.040;2023-09-07T05:58:59;20.17;;;11.70;;
75912;SDS011;64592;52.168;21.040;2023-09-07T06:04:01;22.15;;;12.80;;
75912;SDS011;64592;52.168;21.040;2023-09-07T06:09:04;19.33;;;12.32;;
75912;SDS011;64592;52.168;21.040;2023-09-07T06:14:06;30.83;;;14.60;;
75912;SDS011;64592;52.168;21.040;2023-09-07T06:19:07;22.80;;;14.73;;
75912;SDS011;64592;52.168;21.040;2023-09-07T06:24:10;23.75;;;14.07;;
75912;SDS011;64592;52.168;21.040;2023-09-07T06:29:12;19.50;;;13.77;;
75912;SDS011;64592;52.168;21.040;2023-09-07T06:34:14;27.60;;;16.00;;
75912;SDS011;64592;52.168;21.040;2023-09-07T06:39:17;21.63;;;13.80;;
75912;SDS011;64592;52.168;21.040;2023-09-07T06:44:18;23.08;;;14.48;;
75912;SDS011;64592;52.168;21.040;2023-09-07T06:49:20;19.85;;;13.18;;
75912;SDS011;64592;52.168;21.040;2023-09-07T06:54:23;22.90;;;14.00;;
75912;SDS011;64592;52.168;21.040;2023-09-07T06:59:25;18.52;;;12.07;;
75912;SDS011;64592;52.168;21.040;2023-09-07T07:04:27;25.15;;;13.50;;
75912;SDS011;64592;52.168;21.040;2023-09-07T07:09:30;22.33;;;13.15;;
75912;SDS011;64592;52.168;21.040;2023-09-07T07:14:31;19.60;;;12.20;;
75912;SDS011;64592;52.168;21.040;2023-09-07T07:19:33;21.17;;;12.77;;
75912;SDS011;64592;52.168;21.040;2023-09-07T07:24:36;18.83;;;10.52;;
75912;SDS011;64592;52.168;21.040;2023-09-07T07:29:38;17.95;;;11.95;;
75912;SDS011;64592;52.168;21.040;2023-09-07T07:34:40;20.75;;;12.02;;
75912;SDS011;64592;52.168;21.040;2023-09-07T07:39:43;17.77;;;11.23;;
75912;SDS011;64592;52.168;21.040;2023-09-07T07:44:45;14.77;;;10.50;;
75912;SDS011;64592;52.168;21.040;2023-09-07T07:49:47;20.75;;;12.13;;
75912;SDS011;64592;52.168;21.040;2023-09-07T07:54:50;17.80;;;12.27;;
75912;SDS011;64592;52.168;21.040;2023-09-07T07:59:52;15.02;;;11.90;;
75912;SDS011;64592;52.168;21.040;2023-09-07T08:04:53;19.55;;;10.32;;
75912;SDS011;64592;52.168;21.040;2023-09-07T08:09:57;21.13;;;11.73;;
75912;SDS011;64592;52.168;21.040;2023-09-07T08:14:58;16.00;;;10.73;;
75912;SDS011;64592;52.168;21.040;2023-09-07T08:20:00;20.58;;;11.48;;
75912;SDS011;64592;52.168;21.040;2023-09-07T08:25:04;15.55;;;11.18;;
75912;SDS011;64592;52.168;21.040;2023-09-07T08:30:07;16.33;;;12.32;;
75912;SDS011;64592;52.168;21.040;2023-09-07T08:35:10;15.30;;;10.90;;
75912;SDS011;64592;52.168;21.040;2023-09-07T08:40:14;19.52;;;11.48;;
75912;SDS011;64592;52.168;21.040;2023-09-07T08:45:17;17.85;;;10.05;;
75912;SDS011;64592;52.168;21.040;2023-09-07T08:50:22;15.98;;;10.70;;
75912;SDS011;64592;52.168;21.040;2023-09-07T08:55:26;12.68;;;8.98;;
75912;SDS011;64592;52.168;21.040;2023-09-07T09:00:28;13.90;;;8.73;;
75912;SDS011;64592;52.168;21.040;2023-09-07T09:05:30;14.07;;;9.45;;
75912;SDS011;64592;52.168;21.040;2023-09-07T09:10:34;20.90;;;9.70;;
75912;SDS011;64592;52.168;21.040;2023-09-07T09:15:39;12.35;;;8.18;;
75912;SDS011;64592;52.168;21.040;2023-09-07T09:20:42;13.02;;;7.57;;
75912;SDS011;64592;52.168;21.040;2023-09-07T09:25:46;12.10;;;8.88;;
75912;SDS011;64592;52.168;21.040;2023-09-07T09:30:49;16.52;;;8.15;;
75912;SDS011;64592;52.168;21.040;2023-09-07T09:35:51;11.93;;;7.82;;
75912;SDS011;64592;52.168;21.040;2023-09-07T09:40:55;8.93;;;6.38;;
75912;SDS011;64592;52.168;21.040;2023-09-07T09:45:57;16.38;;;6.40;;
75912;SDS011;64592;52.168;21.040;2023-09-07T09:51:01;13.88;;;6.82;;
75912;SDS011;64592;52.168;21.040;2023-09-07T09:56:06;9.57;;;6.32;;
75912;SDS011;64592;52.168;21.040;2023-09-07T10:01:09;11.80;;;5.88;;
75912;SDS011;64592;52.168;21.040;2023-09-07T10:06:18;8.70;;;5.82;;
75912;SDS011;64592;52.168;21.040;2023-09-07T10:11:28;8.75;;;5.40;;
75912;SDS011;64592;52.168;21.040;2023-09-07T10:16:41;7.75;;;4.82;;
75912;SDS011;64592;52.168;21.040;2023-09-07T10:21:44;7.40;;;4.70;;
75912;SDS011;64592;52.168;21.040;2023-09-07T10:26:56;8.68;;;5.05;;
75912;SDS011;64592;52.168;21.040;2023-09-07T10:32:04;9.00;;;4.68;;
75912;SDS011;64592;52.168;21.040;2023-09-07T10:37:09;8.95;;;5.15;;
75912;SDS011;64592;52.168;21.040;2023-09-07T10:42:23;6.78;;;5.13;;
75912;SDS011;64592;52.168;21.040;2023-09-07T10:47:26;8.05;;;4.90;;
75912;SDS011;64592;52.168;21.040;2023-09-07T10:52:28;9.90;;;5.43;;
75912;SDS011;64592;52.168;21.040;2023-09-07T10:57:32;14.07;;;4.45;;
75912;SDS011;64592;52.168;21.040;2023-09-07T11:02:33;8.07;;;4.85;;
75912;SDS011;64592;52.168;21.040;2023-09-07T11:07:35;6.78;;;4.10;;
75912;SDS011;64592;52.168;21.040;2023-09-07T11:12:39;7.13;;;4.20;;
75912;SDS011;64592;52.168;21.040;2023-09-07T11:17:41;7.78;;;4.80;;
75912;SDS011;64592;52.168;21.040;2023-09-07T11:22:44;8.25;;;4.60;;
75912;SDS011;64592;52.168;21.040;2023-09-07T11:27:47;6.63;;;4.13;;
75912;SDS011;64592;52.168;21.040;2023-09-07T11:32:48;7.22;;;4.20;;
75912;SDS011;64592;52.168;21.040;2023-09-07T11:37:51;6.18;;;4.00;;
75912;SDS011;64592;52.168;21.040;2023-09-07T11:42:55;8.52;;;4.50;;
75912;SDS011;64592;52.168;21.040;2023-09-07T11:47:56;6.97;;;4.35;;
75912;SDS011;64592;52.168;21.040;2023-09-07T11:52:58;6.45;;;4.13;;
75912;SDS011;64592;52.168;21.040;2023-09-07T11:58:01;14.65;;;4.45;;
75912;SDS011;64592;52.168;21.040;2023-09-07T12:03:03;8.10;;;3.88;;
75912;SDS011;64592;52.168;21.040;2023-09-07T12:08:05;8.60;;;3.47;;
75912;SDS011;64592;52.168;21.040;2023-09-07T12:13:08;4.57;;;3.65;;
75912;SDS011;64592;52.168;21.040;2023-09-07T12:18:10;4.45;;;3.17;;
75912;SDS011;64592;52.168;21.040;2023-09-07T12:23:12;6.03;;;3.65;;
75912;SDS011;64592;52.168;21.040;2023-09-07T12:28:15;4.53;;;3.05;;
75912;SDS011;64592;52.168;21.040;2023-09-07T12:33:16;6.55;;;3.40;;
75912;SDS011;64592;52.168;21.040;2023-09-07T12:38:18;4.78;;;3.58;;
75912;SDS011;64592;52.168;21.040;2023-09-07T12:43:23;7.25;;;3.55;;
75912;SDS011;64592;52.168;21.040;2023-09-07T12:48:26;4.90;;;3.50;;
75912;SDS011;64592;52.168;21.040;2023-09-07T12:53:27;5.45;;;3.60;;
75912;SDS011;64592;52.168;21.040;2023-09-07T12:58:30;4.75;;;2.70;;
75912;SDS011;64592;52.168;21.040;2023-09-07T13:03:32;4.72;;;2.97;;
75912;SDS011;64592;52.168;21.040;2023-09-07T13:08:34;3.75;;;2.70;;
75912;SDS011;64592;52.168;21.040;2023-09-07T13:13:37;3.97;;;2.78;;
75912;SDS011;64592;52.168;21.040;2023-09-07T13:18:39;3.83;;;2.80;;
75912;SDS011;64592;52.168;21.040;2023-09-07T13:23:41;4.10;;;3.15;;
75912;SDS011;64592;52.168;21.040;2023-09-07T13:28:44;5.18;;;3.00;;
75912;SDS011;64592;52.168;21.040;2023-09-07T13:33:45;4.78;;;2.88;;
75912;SDS011;64592;52.168;21.040;2023-09-07T13:38:47;5.18;;;3.33;;
75912;SDS011;64592;52.168;21.040;2023-09-07T13:43:50;4.88;;;3.42;;
75912;SDS011;64592;52.168;21.040;2023-09-07T13:48:52;4.70;;;3.05;;
75912;SDS011;64592;52.168;21.040;2023-09-07T13:53:54;5.85;;;3.22;;
75912;SDS011;64592;52.168;21.040;2023-09-07T13:58:57;5.45;;;2.95;;
75912;SDS011;64592;52.168;21.040;2023-09-07T14:03:58;3.90;;;3.15;;
75912;SDS011;64592;52.168;21.040;2023-09-07T14:09:00;5.60;;;3.72;;
75912;SDS011;64592;52.168;21.040;2023-09-07T14:14:03;7.05;;;3.15;;
75912;SDS011;64592;52.168;21.040;2023-09-07T14:19:06;6.82;;;3.80;;
75912;SDS011;64592;52.168;21.040;2023-09-07T14:24:07;6.10;;;4.15;;
75912;SDS011;64592;52.168;21.040;2023-09-07T14:29:10;5.30;;;3.10;;
75912;SDS011;64592;52.168;21.040;2023-09-07T14:34:12;5.43;;;3.00;;
75912;SDS011;64592;52.168;21.040;2023-09-07T14:39:14;6.28;;;3.45;;
75912;SDS011;64592;52.168;21.040;2023-09-07T14:44:19;6.30;;;2.85;;
75912;SDS011;64592;52.168;21.040;2023-09-07T14:49:21;4.80;;;3.13;;
75912;SDS011;64592;52.168;21.040;2023-09-07T14:54:23;9.75;;;3.55;;
75912;SDS011;64592;52.168;21.040;2023-09-07T14:59:26;5.93;;;2.65;;
75912;SDS011;64592;52.168;21.040;2023-09-07T15:04:27;4.20;;;2.80;;
75912;SDS011;64592;52.168;21.040;2023-09-07T15:09:29;5.93;;;3.05;;
75912;SDS011;64592;52.168;21.040;2023-09-07T15:14:32;7.35;;;3.08;;
75912;SDS011;64592;52.168;21.040;2023-09-07T15:19:34;7.15;;;3.15;;
75912;SDS011;64592;52.168;21.040;2023-09-07T15:24:35;4.28;;;2.67;;
75912;SDS011;64592;52.168;21.040;2023-09-07T15:29:38;8.48;;;4.82;;
75912;SDS011;64592;52.168;21.040;2023-09-07T15:34:41;8.38;;;6.55;;
75912;SDS011;64592;52.168;21.040;2023-09-07T15:39:42;5.47;;;3.17;;
75912;SDS011;64592;52.168;21.040;2023-09-07T15:44:46;4.60;;;2.97;;
75912;SDS011;64592;52.168;21.040;2023-09-07T15:49:48;6.45;;;3.42;;
75912;SDS011;64592;52.168;21.040;2023-09-07T15:54:50;5.47;;;3.30;;
75912;SDS011;64592;52.168;21.040;2023-09-07T15:59:53;7.63;;;3.78;;
75912;SDS011;64592;52.168;21.040;2023-09-07T16:04:56;7.35;;;3.80;;
75912;SDS011;64592;52.168;21.040;2023-09-07T16:09:57;5.82;;;3.72;;
75912;SDS011;64592;52.168;21.040;2023-09-07T16:15:00;5.65;;;4.07;;
75912;SDS011;64592;52.168;21.040;2023-09-07T16:20:02;6.00;;;3.70;;
75912;SDS011;64592;52.168;21.040;2023-09-07T16:25:05;7.60;;;4.32;;
75912;SDS011;64592;52.168;21.040;2023-09-07T16:30:08;8.63;;;4.07;;
75912;SDS011;64592;52.168;21.040;2023-09-07T16:35:10;5.75;;;3.80;;
75912;SDS011;64592;52.168;21.040;2023-09-07T16:40:12;7.05;;;4.13;;
75912;SDS011;64592;52.168;21.040;2023-09-07T16:45:17;7.07;;;4.85;;
75912;SDS011;64592;52.168;21.040;2023-09-07T16:50:18;8.98;;;4.75;;
75912;SDS011;64592;52.168;21.040;2023-09-07T16:55:20;7.07;;;5.30;;
75912;SDS011;64592;52.168;21.040;2023-09-07T17:00:23;7.95;;;4.45;;
75912;SDS011;64592;52.168;21.040;2023-09-07T17:05:25;12.50;;;7.03;;
75912;SDS011;64592;52.168;21.040;2023-09-07T17:10:26;8.10;;;4.40;;
75912;SDS011;64592;52.168;21.040;2023-09-07T17:15:29;10.35;;;4.85;;
75912;SDS011;64592;52.168;21.040;2023-09-07T17:20:34;12.40;;;5.28;;
75912;SDS011;64592;52.168;21.040;2023-09-07T17:30:39;9.23;;;4.68;;
75912;SDS011;64592;52.168;21.040;2023-09-07T17:35:40;9.23;;;4.55;;
75912;SDS011;64592;52.168;21.040;2023-09-07T17:40:43;10.30;;;4.75;;
75912;SDS011;64592;52.168;21.040;2023-09-07T17:45:46;9.73;;;4.50;;
75912;SDS011;64592;52.168;21.040;2023-09-07T17:50:48;11.10;;;5.10;;
75912;SDS011;64592;52.168;21.040;2023-09-07T17:55:49;9.68;;;4.80;;
75912;SDS011;64592;52.168;21.040;2023-09-07T18:00:52;8.95;;;4.75;;
75912;SDS011;64592;52.168;21.040;2023-09-07T18:05:54;11.55;;;5.13;;
75912;SDS011;64592;52.168;21.040;2023-09-07T18:10:56;8.90;;;4.32;;
75912;SDS011;64592;52.168;21.040;2023-09-07T18:15:59;10.57;;;5.05;;
75912;SDS011;64592;52.168;21.040;2023-09-07T18:21:04;15.32;;;5.03;;
75912;SDS011;64592;52.168;21.040;2023-09-07T18:26:09;8.13;;;5.00;;
75912;SDS011;64592;52.168;21.040;2023-09-07T18:31:13;12.48;;;4.95;;
75912;SDS011;64592;52.168;21.040;2023-09-07T18:36:14;9.60;;;4.72;;
75912;SDS011;64592;52.168;21.040;2023-09-07T18:41:16;11.15;;;5.78;;
75912;SDS011;64592;52.168;21.040;2023-09-07T18:46:19;13.50;;;5.72;;
75912;SDS011;64592;52.168;21.040;2023-09-07T18:51:21;12.52;;;5.38;;
75912;SDS011;64592;52.168;21.040;2023-09-07T18:56:23;9.75;;;5.30;;
75912;SDS011;64592;52.168;21.040;2023-09-07T19:01:26;12.00;;;5.53;;
75912;SDS011;64592;52.168;21.040;2023-09-07T19:06:28;6.35;;;4.72;;
75912;SDS011;64592;52.168;21.040;2023-09-07T19:11:31;11.82;;;5.32;;
75912;SDS011;64592;52.168;21.040;2023-09-07T19:16:34;11.18;;;5.63;;
75912;SDS011;64592;52.168;21.040;2023-09-07T19:21:36;12.88;;;6.05;;
75912;SDS011;64592;52.168;21.040;2023-09-07T19:26:38;9.80;;;5.18;;
75912;SDS011;64592;52.168;21.040;2023-09-07T19:31:42;9.70;;;5.10;;
75912;SDS011;64592;52.168;21.040;2023-09-07T19:36:45;7.10;;;4.90;;
75912;SDS011;64592;52.168;21.040;2023-09-07T19:41:47;11.18;;;5.22;;
75912;SDS011;64592;52.168;21.040;2023-09-07T19:46:50;9.32;;;5.93;;
75912;SDS011;64592;52.168;21.040;2023-09-07T19:51:52;9.32;;;5.40;;
75912;SDS011;64592;52.168;21.040;2023-09-07T19:56:54;9.57;;;5.63;;
75912;SDS011;64592;52.168;21.040;2023-09-07T20:01:57;11.65;;;6.10;;
75912;SDS011;64592;52.168;21.040;2023-09-07T20:07:01;10.38;;;6.97;;
75912;SDS011;64592;52.168;21.040;2023-09-07T20:12:03;15.75;;;7.35;;
75912;SDS011;64592;52.168;21.040;2023-09-07T20:17:07;11.10;;;6.35;;
75912;SDS011;64592;52.168;21.040;2023-09-07T20:22:11;13.00;;;6.82;;
75912;SDS011;64592;52.168;21.040;2023-09-07T20:27:15;12.13;;;7.13;;
75912;SDS011;64592;52.168;21.040;2023-09-07T20:32:18;14.82;;;7.10;;
75912;SDS011;64592;52.168;21.040;2023-09-07T20:37:19;10.57;;;6.60;;
75912;SDS011;64592;52.168;21.040;2023-09-07T20:42:21;12.68;;;6.80;;
75912;SDS011;64592;52.168;21.040;2023-09-07T20:47:24;10.82;;;7.57;;
75912;SDS011;64592;52.168;21.040;2023-09-07T20:52:26;9.07;;;6.40;;
75912;SDS011;64592;52.168;21.040;2023-09-07T20:57:27;11.30;;;6.57;;
75912;SDS011;64592;52.168;21.040;2023-09-07T21:02:30;15.43;;;6.25;;
75912;SDS011;64592;52.168;21.040;2023-09-07T21:07:32;14.15;;;6.32;;
75912;SDS011;64592;52.168;21.040;2023-09-07T21:12:34;7.78;;;6.10;;
75912;SDS011;64592;52.168;21.040;2023-09-07T21:17:37;11.63;;;6.80;;
75912;SDS011;64592;52.168;21.040;2023-09-07T21:22:39;10.82;;;7.05;;
75912;SDS011;64592;52.168;21.040;2023-09-07T21:27:41;12.68;;;7.20;;
75912;SDS011;64592;52.168;21.040;2023-09-07T21:32:45;11.40;;;6.32;;
75912;SDS011;64592;52.168;21.040;2023-09-07T21:37:47;9.23;;;6.40;;
75912;SDS011;64592;52.168;21.040;2023-09-07T21:42:48;12.55;;;7.03;;
75912;SDS011;64592;52.168;21.040;2023-09-07T21:47:51;7.90;;;6.10;;
75912;SDS011;64592;52.168;21.040;2023-09-07T21:52:53;8.07;;;5.82;;
75912;SDS011;64592;52.168;21.040;2023-09-07T21:57:55;8.02;;;6.20;;
75912;SDS011;64592;52.168;21.040;2023-09-07T22:02:58;11.07;;;6.45;;
75912;SDS011;64592;52.168;21.040;2023-09-07T22:07:59;14.90;;;6.45;;
75912;SDS011;64592;52.168;21.040;2023-09-07T22:13:02;9.85;;;6.38;;
75912;SDS011;64592;52.168;21.040;2023-09-07T22:18:05;7.93;;;5.22;;
75912;SDS011;64592;52.168;21.040;2023-09-07T22:23:07;13.38;;;6.18;;
75912;SDS011;64592;52.168;21.040;2023-09-07T22:28:09;8.52;;;6.38;;
75912;SDS011;64592;52.168;21.040;2023-09-07T22:33:13;8.68;;;6.05;;
75912;SDS011;64592;52.168;21.040;2023-09-07T22:38:15;7.63;;;6.20;;
75912;SDS011;64592;52.168;21.040;2023-09-07T22:43:17;10.10;;;6.00;;
75912;SDS011;64592;52.168;21.040;2023-09-07T22:48:20;11.10;;;6.95;;
75912;SDS011;64592;52.168;21.040;2023-09-07T22:53:21;7.55;;;5.93;;
75912;SDS011;64592;52.168;21.040;2023-09-07T22:58:23;10.98;;;6.65;;
75912;SDS011;64592;52.168;21.040;2023-09-07T23:03:26;7.85;;;6.05;;
75912;SDS011;64592;52.168;21.040;2023-09-07T23:08:28;11.48;;;6.00;;
75912;SDS011;64592;52.168;21.040;2023-09-07T23:13:31;9.20;;;6.32;;
75912;SDS011;64592;52.168;21.040;2023-09-07T23:18:36;10.35;;;6.40;;
75912;SDS011;64592;52.168;21.040;2023-09-07T23:23:38;11.00;;;7.63;;
75912;SDS011;64592;52.168;21.040;2023-09-07T23:28:39;9.68;;;6.60;;
75912;SDS011;64592;52.168;21.040;2023-09-07T23:33:42;11.35;;;6.43;;
75912;SDS011;64592;52.168;21.040;2023-09-07T23:38:44;11.98;;;6.53;;
75912;SDS011;64592;52.168;21.040;2023-09-07T23:43:46;8.73;;;6.15;;
75912;SDS011;64592;52.168;21.040;2023-09-07T23:48:49;12.77;;;7.15;;
75912;SDS011;64592;52.168;21.040;2023-09-07T23:53:50;10.45;;;6.30;;
75912;SDS011;64592;52.168;21.040;2023-09-07T23:58:52;13.52;;;6.60;;
